Courtright, Canada
Current Conditions -  °F | °C
As of 3:38 AM on Tuesday 27 Jan 2015 (Local Time) from KPHN Reporting Station
Clear Clear  
Wind Chill:   Ceiling: Unl
Heat Index:   Visibility: 10mi
Dew Point:   Wind: 3mph
Humidity: 92%   Direction: 320°NW
Pressure: 30"   Gusts: NA
Location:  42.82°N, 82.47°W
Report Text: KPHN 270838Z AUTO 32003KT 10SM CLR M16/M17 A3000 RMK AO2
Loading
Personal Weather Stations






























Interactive Weather Map New forecast layout! Learn more

10-Day Weather Forecast

Advertisements
Track Severe Weather on mobile